createdAt,value
2018-07-04T08:32:04.250Z,97806.45
2018-07-04T08:33:06.868Z,97805.12
2018-07-04T08:34:09.473Z,97708.33
2018-07-04T08:35:13.121Z,97803.66
2018-07-04T08:36:17.242Z,97799.92
2018-07-04T08:37:19.689Z,97719.42
2018-07-04T08:38:24.000Z,97796.47
2018-07-04T08:39:26.775Z,97798.47
2018-07-04T08:40:29.222Z,97799.69
2018-07-04T08:41:32.213Z,97798.27
2018-07-04T08:42:36.129Z,97806.91
2018-07-04T08:43:38.656Z,97799.68
2018-07-04T08:44:41.120Z,97802.03
2018-07-04T08:45:43.591Z,97798.03
2018-07-04T10:39:13.777Z,97770.11
2018-07-04T10:41:27.645Z,97765.89
2018-07-04T10:44:59.018Z,97762.66
2018-07-04T10:47:10.196Z,97765.33
2018-07-04T10:49:25.351Z,97765.33
2018-07-04T10:54:01.928Z,97757.20
2018-07-04T10:56:11.773Z,97763.41
2018-07-04T10:58:21.400Z,97765.48
2018-07-04T10:59:32.491Z,97769.49
2018-07-04T11:00:36.468Z,97765.39
2018-07-04T11:01:40.876Z,97779.23
2018-07-04T11:02:43.375Z,97765.75
2018-07-04T11:03:50.573Z,97779.58
2018-07-04T11:04:54.236Z,97768.81
2018-07-04T11:07:05.597Z,97763.55
2018-07-04T11:08:12.267Z,97763.94
2018-07-04T11:09:15.510Z,97766.22
2018-07-04T11:10:18.489Z,97760.14
2018-07-04T11:11:24.145Z,97757.47
2018-07-04T20:31:53.257Z,97693.34
2018-07-04T20:32:59.858Z,97687.06
2018-07-04T20:34:06.105Z,97684.17
2018-07-04T20:35:09.399Z,97692.33
2018-07-04T20:36:12.331Z,97693.79
2018-07-04T20:37:15.169Z,97688.92
2018-07-04T20:38:17.913Z,97692.55
2018-07-04T20:39:20.339Z,97688.92
2018-07-04T20:40:23.299Z,97693.67
2018-07-04T20:41:27.533Z,97692.13
2018-07-04T20:42:30.909Z,97684.48
2018-07-04T20:43:35.748Z,97684.79
2018-07-04T20:44:38.607Z,97684.79
2018-07-04T20:45:43.425Z,97684.39
2018-07-04T20:46:46.622Z,97681.86
2018-07-04T20:47:49.281Z,97684.31
2018-07-04T20:48:51.818Z,97682.98
2018-07-04T20:49:54.997Z,97679.36
2018-07-04T20:50:58.761Z,97685.66
2018-07-04T20:52:02.172Z,97688.53
2018-07-04T20:53:04.585Z,97687.80
2018-07-04T20:54:10.445Z,97689.30
2018-07-04T20:55:13.609Z,97693.45
2018-07-04T20:56:17.280Z,97690.86
2018-07-04T20:57:20.380Z,97686.94
2018-07-04T20:59:36.744Z,97685.30
2018-07-04T21:00:40.670Z,97684.44
2018-07-04T21:01:46.330Z,97685.77
2018-07-04T21:03:55.905Z,97678.57
2018-07-04T21:04:58.324Z,97678.45
2018-07-04T21:06:00.746Z,97682.12
2018-07-04T21:07:04.428Z,97675.39
2018-07-04T21:08:07.686Z,97677.37
2018-07-04T21:09:11.319Z,97672.81
2018-07-04T21:10:15.782Z,97673.94
2018-07-04T21:12:28.426Z,97665.66
2018-07-04T21:13:31.002Z,97667.59
2018-07-04T21:14:34.648Z,97670.14
2018-07-04T21:15:38.414Z,97670.14
2018-07-04T21:16:41.230Z,97667.42
2018-07-04T21:17:43.708Z,97667.94
2018-07-04T21:18:48.594Z,97672.30
2018-07-04T21:19:53.509Z,97668.28
2018-07-04T21:20:56.459Z,97666.95
2018-07-04T21:21:59.573Z,97665.78
2018-07-04T21:23:03.351Z,97665.19
2018-07-04T21:24:06.412Z,97536.48
2018-07-04T21:25:09.134Z,97659.87
2018-07-04T21:26:12.400Z,97673.95
2018-07-04T21:27:14.826Z,97679.06
2018-07-04T21:28:18.240Z,97676.69
2018-07-04T21:29:21.022Z,97680.48
2018-07-04T21:30:23.451Z,97682.55
2018-07-04T21:31:26.532Z,97685.81
2018-07-04T21:32:29.882Z,97687.41
2018-07-04T21:33:33.186Z,97688.92
2018-07-04T21:34:35.922Z,97691.47
2018-07-04T21:35:38.334Z,97693.45
2018-07-04T21:36:40.860Z,97698.97
2018-07-04T21:37:43.275Z,97704.67
2018-07-04T21:38:45.713Z,97706.13
2018-07-04T21:39:48.680Z,97706.81
2018-07-04T21:40:51.804Z,97711.69
2018-07-04T21:41:54.224Z,97714.08
2018-07-04T21:42:57.246Z,97715.14
2018-07-04T21:43:59.904Z,97716.84
2018-07-04T21:45:02.321Z,97717.50
2018-07-04T21:46:05.139Z,97709.08
2018-07-04T22:27:12.324Z,97741.02
